Time;durP1;ratioP1;P1;durP2;ratioP2;P2;SDS_P1;SDS_P2;PMS_P1;PMS_P2;Temp;Humidity;BMP_temperature;BMP_pressure;BME280_temperature;BME280_humidity;BME280_pressure;Samples;Min_cycle;Max_cycle;Signal;HPM_P1;HPM_P2
2021/04/14 00:01:43;;;;;;;1.80;1.13;;;5.30;47.50;;;;;;5039792;28;20152;-71
2021/04/14 00:04:09;;;;;;;1.73;1.35;;;5.30;46.50;;;;;;5039366;28;20041;-71
2021/04/14 00:06:35;;;;;;;1.10;0.82;;;5.30;45.10;;;;;;5039317;28;20021;-71
2021/04/14 00:09:01;;;;;;;1.90;1.27;;;5.40;45.50;;;;;;5039745;28;20029;-71
2021/04/14 00:11:26;;;;;;;3.20;1.10;;;5.50;45.10;;;;;;5039659;28;20021;-71
2021/04/14 00:13:52;;;;;;;1.77;1.15;;;5.50;45.20;;;;;;5039136;28;20462;-71
2021/04/14 00:16:21;;;;;;;1.48;1.02;;;5.50;45.30;;;;;;5039553;28;20101;-72
2021/04/14 00:18:47;;;;;;;2.22;1.23;;;5.40;45.40;;;;;;5039429;28;20033;-71
2021/04/14 00:21:14;;;;;;;1.40;1.10;;;5.50;42.90;;;;;;5039165;28;20053;-71
2021/04/14 00:23:40;;;;;;;1.92;1.00;;;5.50;44.70;;;;;;5039343;28;20029;-72
2021/04/14 00:26:07;;;;;;;2.00;1.45;;;5.50;44.10;;;;;;5037948;28;20049;-71
2021/04/14 00:28:33;;;;;;;2.00;1.30;;;5.40;47.30;;;;;;5038968;28;20033;-72
2021/04/14 00:31:00;;;;;;;1.70;1.10;;;5.30;46.10;;;;;;5038993;28;20112;-71
2021/04/14 00:33:25;;;;;;;1.75;1.25;;;5.30;45.40;;;;;;5039202;28;20108;-71
2021/04/14 00:35:53;;;;;;;1.55;1.20;;;5.20;45.10;;;;;;5038886;28;20052;-71
2021/04/14 00:38:19;;;;;;;1.60;1.15;;;5.20;45.40;;;;;;5038802;28;20025;-71
2021/04/14 00:40:55;;;;;;;1.92;1.35;;;5.30;45.30;;;;;;5039062;28;20104;-71
2021/04/14 00:43:23;;;;;;;;;;;5.20;46.10;;;;;;5039116;28;20033;-71
2021/04/14 00:45:49;;;;;;;1.35;1.10;;;5.20;46.30;;;;;;5038945;28;19916;-72
2021/04/14 00:48:17;;;;;;;2.58;1.40;;;5.20;46.10;;;;;;5038675;28;20021;-71
2021/04/14 00:50:43;;;;;;;3.08;1.50;;;5.20;45.10;;;;;;5038628;28;20224;-72
2021/04/14 00:53:10;;;;;;;2.63;1.50;;;5.20;43.80;;;;;;5038489;28;20137;-71
2021/04/14 00:55:37;;;;;;;1.58;1.20;;;5.30;44.30;;;;;;5038767;28;20060;-72
2021/04/14 00:58:05;;;;;;;1.50;1.30;;;5.30;44.20;;;;;;5038473;28;20108;-72
2021/04/14 01:00:40;;;;;;;2.17;1.58;;;5.30;45.30;;;;;;5038749;28;20032;-71
2021/04/14 01:03:10;;;;;;;3.78;1.30;;;5.20;45.40;;;;;;5038699;28;20037;-71
2021/04/14 01:05:37;;;;;;;2.13;1.52;;;5.20;44.70;;;;;;5038153;28;20025;-71
2021/04/14 01:08:05;;;;;;;2.05;1.60;;;5.20;45.60;;;;;;5038575;28;20153;-72
2021/04/14 01:10:30;;;;;;;1.65;1.45;;;5.20;45.90;;;;;;5038289;28;20029;-71
2021/04/14 01:12:56;;;;;;;2.58;1.35;;;5.20;44.10;;;;;;5038466;28;20100;-71
2021/04/14 01:15:29;;;;;;;1.50;1.40;;;5.30;43.90;;;;;;5038375;28;20030;-71
2021/04/14 01:17:55;;;;;;;2.40;1.67;;;5.30;43.70;;;;;;5038102;28;20030;-71
2021/04/14 01:20:20;;;;;;;2.42;1.42;;;5.30;44.10;;;;;;5038379;28;20030;-71
2021/04/14 01:22:46;;;;;;;1.65;1.25;;;5.30;44.30;;;;;;5038326;28;20104;-71
2021/04/14 01:25:14;;;;;;;2.08;1.40;;;5.30;44.20;;;;;;5037955;28;20445;-71
2021/04/14 01:27:40;;;;;;;2.85;1.60;;;5.30;44.50;;;;;;5037796;28;20033;-71
2021/04/14 01:30:10;;;;;;;1.95;1.50;;;5.30;43.80;;;;;;5038161;28;20025;-71
2021/04/14 01:32:36;;;;;;;2.08;1.42;;;5.30;44.10;;;;;;5037733;28;20026;-71
2021/04/14 01:35:02;;;;;;;1.85;1.40;;;5.20;44.70;;;;;;5037650;28;20539;-71
2021/04/14 01:37:28;;;;;;;2.58;1.88;;;5.20;44.90;;;;;;5037864;28;20317;-71
2021/04/14 01:39:53;;;;;;;2.85;1.98;;;5.10;45.00;;;;;;5038150;28;20022;-71
2021/04/14 01:42:19;;;;;;;3.05;1.55;;;5.10;44.50;;;;;;5037675;28;20021;-71
2021/04/14 01:44:44;;;;;;;2.30;1.58;;;5.20;44.30;;;;;;5037555;28;20037;-71
2021/04/14 01:47:10;;;;;;;1.83;1.30;;;5.20;44.30;;;;;;5037727;28;20108;-71
2021/04/14 01:49:36;;;;;;;2.42;1.63;;;5.10;42.70;;;;;;5037469;28;20038;-71
2021/04/14 01:52:01;;;;;;;3.45;1.55;;;5.20;43.80;;;;;;5037430;28;20026;-71
2021/04/14 01:54:27;;;;;;;1.88;1.50;;;5.10;44.00;;;;;;5037608;28;20022;-71
2021/04/14 01:56:54;;;;;;;3.00;1.60;;;5.10;44.80;;;;;;5037646;28;20116;-71
2021/04/14 01:59:19;;;;;;;2.00;1.50;;;5.10;44.10;;;;;;5037628;28;20056;-71
2021/04/14 02:01:45;;;;;;;2.47;1.95;;;5.10;43.70;;;;;;5037285;28;20026;-71
2021/04/14 02:04:11;;;;;;;2.33;1.45;;;5.10;44.80;;;;;;5037456;28;20033;-71
2021/04/14 02:06:36;;;;;;;2.13;1.85;;;5.10;43.60;;;;;;5037368;28;20039;-71
2021/04/14 02:09:03;;;;;;;2.00;1.52;;;5.10;43.50;;;;;;5037196;28;20104;-71
2021/04/14 02:11:29;;;;;;;2.25;1.70;;;5.00;43.80;;;;;;5037430;28;20024;-71
2021/04/14 02:13:54;;;;;;;2.38;1.80;;;5.10;43.20;;;;;;5037309;28;20322;-71
2021/04/14 02:16:21;;;;;;;1.90;1.60;;;5.10;43.20;;;;;;5037307;28;20021;-71
2021/04/14 02:18:50;;;;;;;2.08;1.65;;;5.10;43.10;;;;;;5036944;28;20025;-71
2021/04/14 02:21:16;;;;;;;1.95;1.48;;;5.10;42.80;;;;;;5036969;28;20037;-71
2021/04/14 02:23:42;;;;;;;2.40;1.80;;;5.10;44.40;;;;;;5036921;28;20033;-71
2021/04/14 02:26:14;;;;;;;1.95;1.55;;;5.10;43.90;;;;;;5036666;28;20052;-72
2021/04/14 02:28:40;;;;;;;2.08;1.73;;;5.10;42.80;;;;;;5037156;28;20083;-71
2021/04/14 02:31:08;;;;;;;2.20;2.00;;;5.00;43.10;;;;;;5036828;28;20291;-71
2021/04/14 02:33:35;;;;;;;1.70;1.48;;;5.00;43.70;;;;;;5036714;28;20036;-71
2021/04/14 02:36:01;;;;;;;2.38;1.90;;;5.00;43.80;;;;;;5037091;28;20021;-71
2021/04/14 02:38:27;;;;;;;1.80;1.50;;;5.00;43.30;;;;;;5037012;28;20057;-71
2021/04/14 02:40:53;;;;;;;2.10;1.58;;;5.00;43.90;;;;;;5036745;28;20345;-71
2021/04/14 02:43:20;;;;;;;2.50;1.90;;;5.00;43.50;;;;;;5036914;28;20045;-71
2021/04/14 02:45:46;;;;;;;2.00;1.80;;;5.00;43.20;;;;;;5036870;28;20104;-71
2021/04/14 02:48:12;;;;;;;2.90;1.77;;;5.00;42.90;;;;;;5036611;28;20436;-71
2021/04/14 02:50:39;;;;;;;2.67;2.25;;;5.00;43.50;;;;;;5036457;28;20017;-71
2021/04/14 02:53:06;;;;;;;2.03;1.80;;;4.90;42.80;;;;;;5036827;28;20022;-71
2021/04/14 02:55:32;;;;;;;2.60;1.73;;;4.90;42.00;;;;;;5036486;28;20121;-71
2021/04/14 02:57:58;;;;;;;2.30;1.95;;;4.90;42.80;;;;;;5036528;28;20029;-71
2021/04/14 03:00:26;;;;;;;2.65;1.98;;;4.90;44.10;;;;;;5036831;28;20025;-71
2021/04/14 03:02:53;;;;;;;2.45;1.92;;;4.80;42.50;;;;;;5036488;28;20030;-71
2021/04/14 03:05:24;;;;;;;2.20;1.85;;;4.90;43.60;;;;;;5036370;28;20021;-71
2021/04/14 03:07:50;;;;;;;3.88;1.90;;;4.90;43.70;;;;;;5036375;28;20037;-71
2021/04/14 03:10:17;;;;;;;2.30;1.88;;;5.00;41.60;;;;;;5036463;28;20029;-71
2021/04/14 03:12:43;;;;;;;3.30;2.05;;;4.90;42.70;;;;;;5036685;28;20029;-71
2021/04/14 03:15:13;;;;;;;2.40;1.92;;;4.90;42.10;;;;;;5036311;28;20437;-71
2021/04/14 03:17:39;;;;;;;2.00;1.63;;;4.90;43.20;;;;;;5036642;28;20030;-71
2021/04/14 03:20:08;;;;;;;2.13;1.67;;;4.90;42.70;;;;;;5036510;28;20044;-71
2021/04/14 03:22:34;;;;;;;1.98;1.73;;;4.90;42.70;;;;;;5036310;28;20084;-71
2021/04/14 03:25:00;;;;;;;2.38;1.65;;;4.90;43.30;;;;;;5035147;28;20164;-71
2021/04/14 03:27:26;;;;;;;2.28;2.05;;;4.90;42.60;;;;;;5036484;28;20041;-71
2021/04/14 03:29:52;;;;;;;3.17;1.83;;;4.90;42.60;;;;;;5035242;28;20029;-71
2021/04/14 03:32:18;;;;;;;3.47;1.90;;;4.90;43.00;;;;;;5036489;28;20025;-71
2021/04/14 03:34:44;;;;;;;3.28;1.95;;;4.80;42.50;;;;;;5036400;28;20071;-71
2021/04/14 03:37:09;;;;;;;2.28;1.88;;;4.90;42.80;;;;;;5036486;28;20041;-71
2021/04/14 03:39:35;;;;;;;2.13;1.70;;;4.90;42.30;;;;;;5036480;28;20048;-71
2021/04/14 03:42:01;;;;;;;2.13;1.92;;;4.90;41.80;;;;;;5036437;28;20045;-71
2021/04/14 03:44:34;;;;;;;2.90;2.10;;;4.80;43.00;;;;;;5036342;28;20025;-71
2021/04/14 03:47:01;;;;;;;2.65;1.70;;;4.90;41.20;;;;;;5036042;28;20112;-71
2021/04/14 03:49:27;;;;;;;2.78;2.00;;;4.90;41.20;;;;;;5036342;28;20101;-71
2021/04/14 03:51:53;;;;;;;2.40;1.90;;;5.00;42.60;;;;;;5036348;28;20033;-71
2021/04/14 03:54:19;;;;;;;2.35;1.75;;;4.90;43.10;;;;;;5036310;28;20035;-71
2021/04/14 03:56:45;;;;;;;1.60;1.50;;;4.90;42.10;;;;;;5036257;28;20333;-71
2021/04/14 03:59:11;;;;;;;2.90;1.85;;;4.90;41.40;;;;;;5036337;28;20032;-71
2021/04/14 04:01:36;;;;;;;2.88;1.80;;;4.90;41.70;;;;;;5037286;28;20414;-71
2021/04/14 04:04:02;;;;;;;2.28;1.90;;;4.90;41.50;;;;;;5039690;28;20322;-71
2021/04/14 04:06:28;;;;;;;3.47;2.20;;;4.90;42.90;;;;;;5039708;28;20321;-71
2021/04/14 04:08:53;;;;;;;2.22;1.95;;;4.90;42.00;;;;;;5039725;28;20117;-71
2021/04/14 04:11:22;;;;;;;2.40;1.75;;;4.90;41.20;;;;;;5039659;28;20119;-72
2021/04/14 04:13:49;;;;;;;2.15;1.65;;;4.90;41.10;;;;;;5039571;28;20310;-72
2021/04/14 04:16:15;;;;;;;5.85;1.77;;;4.90;40.80;;;;;;5039568;28;20053;-72
2021/04/14 04:18:40;;;;;;;2.15;1.80;;;4.90;41.90;;;;;;5039507;28;20052;-72
2021/04/14 04:21:07;;;;;;;2.35;2.13;;;4.90;41.70;;;;;;5039522;28;20421;-72
2021/04/14 04:23:33;;;;;;;1.70;1.50;;;4.80;42.00;;;;;;5039395;28;20037;-72
2021/04/14 04:25:59;;;;;;;2.25;1.83;;;4.90;41.80;;;;;;5038796;28;20441;-72
2021/04/14 04:28:25;;;;;;;1.90;1.70;;;4.90;41.00;;;;;;5039306;28;20028;-72
2021/04/14 04:30:51;;;;;;;2.38;1.58;;;4.90;41.00;;;;;;5039320;28;20029;-71
2021/04/14 04:33:18;;;;;;;1.98;1.77;;;4.90;41.40;;;;;;5039246;28;20029;-72
2021/04/14 04:35:43;;;;;;;2.10;1.70;;;4.90;41.70;;;;;;5039231;28;20043;-72
2021/04/14 04:38:09;;;;;;;2.85;2.22;;;4.80;42.30;;;;;;5038885;28;20025;-72
2021/04/14 04:40:35;;;;;;;2.65;1.70;;;4.80;40.20;;;;;;5038842;28;20030;-72
2021/04/14 04:43:01;;;;;;;2.38;2.00;;;4.80;40.90;;;;;;5039081;28;20022;-72
2021/04/14 04:45:29;;;;;;;2.10;1.77;;;4.80;40.80;;;;;;5038727;28;20414;-72
2021/04/14 04:47:56;;;;;;;1.85;1.48;;;4.90;41.50;;;;;;5038882;28;20032;-72
2021/04/14 04:50:26;;;;;;;2.58;1.88;;;4.80;42.50;;;;;;5038964;28;20018;-72
2021/04/14 04:52:56;;;;;;;4.03;1.95;;;4.80;44.70;;;;;;5038946;28;20040;-72
2021/04/14 04:55:22;;;;;;;2.05;1.85;;;4.60;43.20;;;;;;5038700;28;20311;-72
2021/04/14 04:57:48;;;;;;;1.90;1.70;;;4.50;42.20;;;;;;5038494;28;20052;-72
2021/04/14 05:00:15;;;;;;;2.22;1.70;;;4.60;42.10;;;;;;5038454;28;20029;-72
2021/04/14 05:02:40;;;;;;;2.08;1.70;;;4.70;40.90;;;;;;5038681;28;20104;-72
2021/04/14 05:05:13;;;;;;;2.72;1.88;;;4.90;41.40;;;;;;5038620;28;20109;-72
2021/04/14 05:07:39;;;;;;;3.92;1.75;;;4.80;41.50;;;;;;5038532;28;20313;-72
2021/04/14 05:10:06;;;;;;;3.85;1.88;;;4.80;41.20;;;;;;5038568;28;20029;-72
2021/04/14 05:12:31;;;;;;;2.92;2.00;;;4.90;41.10;;;;;;5038134;28;20025;-72
2021/04/14 05:14:57;;;;;;;1.98;1.70;;;4.90;41.90;;;;;;5038110;28;20325;-72
2021/04/14 05:17:23;;;;;;;2.67;1.80;;;4.90;43.20;;;;;;5038452;28;20061;-71
2021/04/14 05:19:48;;;;;;;2.67;1.55;;;5.00;42.10;;;;;;5038450;28;20038;-72
2021/04/14 05:22:14;;;;;;;5.18;2.00;;;5.00;41.30;;;;;;5038032;28;20495;-72
2021/04/14 05:24:40;;;;;;;2.03;1.70;;;5.10;40.50;;;;;;5038113;28;20113;-72
2021/04/14 05:27:06;;;;;;;2.72;1.80;;;5.10;42.60;;;;;;5038164;28;20313;-72
2021/04/14 05:29:31;;;;;;;2.65;1.80;;;5.20;41.70;;;;;;5038260;28;20021;-72
2021/04/14 05:31:58;;;;;;;2.53;1.70;;;5.20;41.70;;;;;;5037875;28;20025;-72
2021/04/14 05:34:24;;;;;;;3.00;1.92;;;5.30;40.40;;;;;;5038060;28;20030;-71
2021/04/14 05:36:52;;;;;;;2.38;1.75;;;5.30;39.40;;;;;;5037764;28;20030;-72
2021/04/14 05:39:18;;;;;;;2.75;1.55;;;5.40;38.80;;;;;;5038053;28;20060;-71
2021/04/14 05:41:44;;;;;;;1.90;1.65;;;5.50;39.70;;;;;;5037943;28;20029;-72
2021/04/14 05:44:09;;;;;;;2.35;1.80;;;5.60;40.10;;;;;;5037544;28;20103;-72
2021/04/14 05:46:35;;;;;;;2.35;1.65;;;5.50;39.10;;;;;;5037791;28;20057;-72
2021/04/14 05:49:01;;;;;;;1.60;1.48;;;5.60;41.40;;;;;;5037830;28;20116;-72
2021/04/14 05:51:32;;;;;;;1.70;1.60;;;5.60;41.20;;;;;;5037516;28;20040;-72
2021/04/14 05:54:00;;;;;;;2.20;1.60;;;5.60;40.40;;;;;;5037687;28;20036;-72
2021/04/14 05:56:28;;;;;;;1.67;1.55;;;5.60;40.60;;;;;;5037657;28;20037;-72
2021/04/14 05:58:54;;;;;;;2.28;1.85;;;5.70;39.00;;;;;;5037356;28;20090;-72
2021/04/14 06:01:23;;;;;;;1.63;1.27;;;5.70;39.90;;;;;;5037617;28;20079;-72
2021/04/14 06:03:51;;;;;;;2.08;1.70;;;5.70;38.30;;;;;;5037187;28;20057;-72
2021/04/14 06:06:18;;;;;;;2.03;1.52;;;5.80;41.10;;;;;;5037492;28;20030;-72
2021/04/14 06:08:44;;;;;;;2.40;1.65;;;5.80;40.00;;;;;;5037129;28;20026;-72
2021/04/14 06:11:10;;;;;;;1.83;1.65;;;5.90;39.40;;;;;;5037140;28;20021;-72
2021/04/14 06:13:36;;;;;;;2.30;1.63;;;5.90;38.60;;;;;;5037344;28;20103;-72
2021/04/14 06:16:07;;;;;;;1.95;1.60;;;6.00;37.60;;;;;;5037381;28;20108;-72
2021/04/14 06:18:33;;;;;;;2.20;1.83;;;6.10;39.40;;;;;;5036979;28;20067;-72
2021/04/14 06:20:59;;;;;;;4.97;1.83;;;6.20;41.00;;;;;;5037312;28;20029;-72
2021/04/14 06:23:25;;;;;;;2.08;1.25;;;6.20;40.60;;;;;;5036767;28;20042;-72
2021/04/14 06:26:12;;;;;;;2.33;1.70;;;6.20;40.40;;;;;;5036196;28;20055;-72
2021/04/14 06:28:39;;;;;;;2.10;1.40;;;6.30;38.80;;;;;;5037275;28;20029;-72
2021/04/14 06:31:06;;;;;;;1.70;1.50;;;6.40;37.40;;;;;;5036893;28;20025;-72
2021/04/14 06:33:35;;;;;;;3.33;1.63;;;6.50;37.70;;;;;;5037046;28;20026;-72
2021/04/14 06:36:01;;;;;;;1.75;1.42;;;6.70;38.70;;;;;;5036817;28;20472;-72
2021/04/14 06:38:31;;;;;;;1.77;1.10;;;7.00;38.70;;;;;;5037059;28;20029;-72
2021/04/14 06:44:00;;;;;;;1.73;1.20;;;7.40;42.60;;;;;;5037403;28;20040;-72
2021/04/14 06:46:31;;;;;;;1.50;1.40;;;7.70;35.30;;;;;;5036928;28;20031;-73
2021/04/14 06:49:02;;;;;;;2.45;1.20;;;7.90;42.40;;;;;;5036615;28;20037;-72
2021/04/14 06:51:47;;;;;;;1.23;0.95;;;8.20;37.80;;;;;;5036962;28;20132;-72
2021/04/14 06:54:44;;;;;;;2.47;1.42;;;8.40;35.90;;;;;;5036884;28;20033;-72
2021/04/14 06:57:17;;;;;;;3.78;1.40;;;8.10;37.30;;;;;;5036878;28;20057;-72
2021/04/14 06:59:52;;;;;;;1.70;1.13;;;7.70;34.70;;;;;;5036851;28;20076;-72
2021/04/14 07:02:28;;;;;;;4.13;1.17;;;7.70;36.10;;;;;;5036849;28;20026;-72
2021/04/14 07:05:03;;;;;;;4.93;1.30;;;7.60;36.00;;;;;;5036437;28;20029;-72
2021/04/14 07:07:33;;;;;;;2.33;1.10;;;7.60;37.30;;;;;;5036347;28;20112;-72
2021/04/14 07:10:05;;;;;;;2.38;1.50;;;7.70;38.10;;;;;;5036446;28;20414;-72
2021/04/14 07:12:31;;;;;;;1.88;1.10;;;8.00;37.70;;;;;;5036481;28;20429;-73
2021/04/14 07:14:59;;;;;;;2.35;1.20;;;8.30;36.50;;;;;;5036665;28;20018;-73
2021/04/14 07:17:30;;;;;;;2.00;1.40;;;8.60;33.30;;;;;;5036375;28;20033;-72
2021/04/14 07:20:07;;;;;;;2.13;1.20;;;9.10;35.10;;;;;;5036648;28;20505;-73
2021/04/14 07:22:57;;;;;;;3.22;1.20;;;9.70;35.80;;;;;;5036651;28;20045;-73
2021/04/14 07:25:46;;;;;;;1.80;0.98;;;10.20;32.50;;;;;;5036233;28;20131;-73
2021/04/14 07:28:35;;;;;;;1.40;1.10;;;11.00;34.10;;;;;;5035993;28;20090;-72
2021/04/14 07:31:05;;;;;;;1.55;1.10;;;11.10;33.50;;;;;;5036492;28;20380;-73
2021/04/14 07:34:10;;;;;;;2.03;0.90;;;11.30;32.40;;;;;;5036759;28;20038;-73
2021/04/14 07:36:51;;;;;;;1.75;1.30;;;11.60;33.30;;;;;;5038593;28;20049;-73
2021/04/14 07:39:29;;;;;;;2.22;1.10;;;12.00;30.20;;;;;;5040042;28;20025;-73
2021/04/14 07:42:07;;;;;;;2.33;0.75;;;12.40;30.30;;;;;;5039965;28;20053;-73
2021/04/14 07:45:21;;;;;;;1.27;0.85;;;13.20;33.40;;;;;;5039735;28;20108;-73
2021/04/14 07:47:59;;;;;;;2.40;0.93;;;13.30;30.60;;;;;;5039101;28;20037;-73
2021/04/14 07:50:47;;;;;;;1.92;1.10;;;13.30;31.60;;;;;;5040116;28;20021;-72
2021/04/14 07:53:27;;;;;;;1.10;0.73;;;13.40;29.40;;;;;;5039900;28;20410;-72
2021/04/14 07:56:01;;;;;;;1.73;1.20;;;12.90;33.20;;;;;;5039631;28;20040;-72
2021/04/14 07:58:27;;;;;;;1.98;0.90;;;13.40;30.50;;;;;;5039670;28;20108;-72
2021/04/14 08:00:53;;;;;;;2.00;0.98;;;13.80;32.10;;;;;;5039927;28;20033;-73
2021/04/14 08:03:30;;;;;;;1.73;1.00;;;14.30;30.70;;;;;;5039806;28;20547;-72
2021/04/14 08:06:13;;;;;;;3.72;0.90;;;14.70;29.00;;;;;;5039721;28;20433;-72
2021/04/14 08:08:41;;;;;;;1.85;1.02;;;14.90;27.90;;;;;;5039703;28;20033;-72
2021/04/14 08:11:16;;;;;;;2.53;0.90;;;14.60;32.30;;;;;;5039394;28;20417;-73
2021/04/14 08:13:42;;;;;;;2.03;1.00;;;14.40;31.00;;;;;;5039336;28;20026;-73
2021/04/14 08:16:34;;;;;;;1.90;1.10;;;14.30;29.00;;;;;;5039305;28;20061;-73
2021/04/14 08:19:08;;;;;;;3.33;1.85;;;14.40;28.00;;;;;;5039240;28;20455;-72
2021/04/14 08:21:56;;;;;;;3.63;3.22;;;14.70;35.60;;;;;;5039331;28;20044;-73
2021/04/14 08:24:41;;;;;;;5.15;3.42;;;15.20;41.50;;;;;;5039437;28;20044;-72
2021/04/14 08:27:36;;;;;;;5.10;4.18;;;15.50;44.20;;;;;;5039123;28;20072;-72
2021/04/14 08:30:13;;;;;;;8.02;3.15;;;16.10;41.80;;;;;;5039042;28;20029;-72
2021/04/14 08:32:56;;;;;;;3.47;3.03;;;15.90;42.40;;;;;;5039036;28;20029;-72
2021/04/14 08:35:40;;;;;;;3.30;3.00;;;16.00;39.50;;;;;;5038941;28;20421;-72
2021/04/14 08:38:16;;;;;;;3.38;1.20;;;15.90;41.90;;;;;;5039212;28;20083;-73
2021/04/14 08:40:49;;;;;;;1.40;1.10;;;16.10;35.70;;;;;;5039193;28;20030;-72
2021/04/14 08:43:22;;;;;;;1.58;1.00;;;16.10;28.50;;;;;;5039012;28;20025;-73
2021/04/14 08:45:47;;;;;;;2.30;1.20;;;16.00;34.10;;;;;;5039022;28;20053;-73
2021/04/14 08:48:26;;;;;;;4.00;0.75;;;15.40;28.40;;;;;;5037959;28;20068;-72
2021/04/14 08:50:56;;;;;;;4.90;1.10;;;15.30;31.70;;;;;;5038965;28;20021;-72
2021/04/14 08:53:31;;;;;;;2.17;1.25;;;15.70;30.50;;;;;;5038795;28;20029;-73
2021/04/14 08:55:57;;;;;;;1.48;0.90;;;16.10;33.10;;;;;;5038897;28;20368;-71
2021/04/14 08:58:23;;;;;;;1.30;0.70;;;16.30;29.60;;;;;;5038553;28;20033;-72
2021/04/14 09:00:49;;;;;;;3.10;1.00;;;16.20;28.50;;;;;;5038939;28;20321;-73
2021/04/14 09:03:20;;;;;;;1.92;1.00;;;16.20;29.30;;;;;;5038648;28;20025;-72
2021/04/14 09:05:46;;;;;;;1.30;1.00;;;15.80;29.40;;;;;;5038638;28;20024;-72
2021/04/14 09:08:18;;;;;;;2.72;1.25;;;15.20;29.90;;;;;;5038326;28;20040;-72
2021/04/14 09:11:00;;;;;;;1.50;0.85;;;15.40;30.30;;;;;;5038648;28;20017;-72
2021/04/14 09:13:48;;;;;;;1.52;1.10;;;15.80;31.50;;;;;;5038518;28;20029;-73
2021/04/14 09:16:47;;;;;;;1.30;0.95;;;15.90;33.60;;;;;;5038192;28;20045;-73
2021/04/14 09:19:48;;;;;;;1.27;0.73;;;16.10;27.10;;;;;;5038400;28;20056;-72
2021/04/14 09:22:22;;;;;;;1.73;0.88;;;15.70;28.20;;;;;;5036402;28;20040;-72
2021/04/14 09:24:55;;;;;;;1.70;1.38;;;16.30;33.40;;;;;;5037293;28;20049;-73
2021/04/14 09:27:26;;;;;;;2.53;1.38;;;17.00;31.60;;;;;;5037918;28;20029;-73
2021/04/14 09:30:08;;;;;;;1.75;0.90;;;16.30;31.60;;;;;;5037968;28;20429;-73
2021/04/14 09:32:56;;;;;;;1.48;1.08;;;16.80;33.90;;;;;;5037915;28;20489;-73
2021/04/14 09:35:28;;;;;;;2.28;1.50;;;17.10;32.50;;;;;;5038058;28;20026;-73
2021/04/14 09:38:21;;;;;;;2.15;1.55;;;16.80;32.10;;;;;;5037753;28;20038;-73
2021/04/14 09:40:49;;;;;;;2.67;1.95;;;17.30;32.70;;;;;;5038071;28;20030;-73
2021/04/14 09:43:19;;;;;;;2.03;1.10;;;17.60;34.40;;;;;;5037560;28;20057;-73
2021/04/14 09:46:28;;;;;;;3.17;1.40;;;17.90;31.30;;;;;;5037546;28;20033;-73
2021/04/14 09:48:54;;;;;;;5.32;1.65;;;17.10;35.00;;;;;;5037027;28;20025;-73
2021/04/14 09:51:27;;;;;;;2.15;1.50;;;17.20;34.70;;;;;;5037805;28;20079;-73
2021/04/14 09:53:58;;;;;;;2.47;1.73;;;16.90;35.20;;;;;;5037733;28;20313;-73
2021/04/14 09:56:27;;;;;;;1.98;1.13;;;17.20;34.70;;;;;;5037423;28;20088;-73
2021/04/14 09:59:18;;;;;;;3.25;1.60;;;17.70;32.50;;;;;;5037679;28;20032;-73
2021/04/14 10:01:45;;;;;;;2.40;1.70;;;17.70;33.30;;;;;;5037605;28;20032;-73
2021/04/14 10:04:25;;;;;;;2.40;1.90;;;17.80;32.00;;;;;;5037519;28;20025;-73
2021/04/14 10:07:05;;;;;;;2.50;1.65;;;16.80;32.60;;;;;;5037229;28;20036;-73
2021/04/14 10:09:36;;;;;;;2.70;2.00;;;16.60;33.30;;;;;;5037549;28;20025;-73
2021/04/14 10:12:28;;;;;;;4.22;1.83;;;17.20;35.00;;;;;;5037458;28;20326;-72
2021/04/14 10:14:57;;;;;;;2.17;1.70;;;16.00;35.70;;;;;;5040385;28;20057;-73
2021/04/14 10:17:26;;;;;;;2.13;1.40;;;15.70;37.30;;;;;;5050126;28;20083;-73
2021/04/14 10:19:54;;;;;;;2.08;1.00;;;15.00;35.90;;;;;;5057300;28;20341;-72
2021/04/14 10:22:34;;;;;;;1.58;1.27;;;14.30;36.40;;;;;;5057718;28;20309;-72
2021/04/14 10:25:25;;;;;;;2.13;1.30;;;13.00;35.10;;;;;;5056915;28;20114;-73
2021/04/14 10:28:04;;;;;;;2.97;1.10;;;11.80;36.80;;;;;;5057061;28;20049;-72
2021/04/14 10:30:33;;;;;;;2.15;1.30;;;11.20;37.60;;;;;;5056813;28;20029;-73
2021/04/14 10:33:08;;;;;;;4.65;1.00;;;12.50;35.50;;;;;;5057070;28;20017;-72
2021/04/14 10:35:35;;;;;;;3.25;1.17;;;13.50;34.60;;;;;;5057019;28;20031;-72
2021/04/14 10:38:01;;;;;;;1.80;1.23;;;13.20;35.50;;;;;;5056957;28;20048;-73
2021/04/14 10:40:33;;;;;;;2.85;1.10;;;13.40;35.00;;;;;;5056669;28;20025;-73
2021/04/14 10:43:16;;;;;;;1.27;0.95;;;14.40;34.00;;;;;;5057013;28;20037;-72
2021/04/14 10:46:29;;;;;;;1.70;0.85;;;15.50;30.90;;;;;;5056978;28;20270;-73
2021/04/14 10:49:11;;;;;;;1.70;1.10;;;16.10;27.90;;;;;;5055556;28;20409;-73
2021/04/14 10:51:47;;;;;;;1.30;1.00;;;16.80;35.00;;;;;;5056601;28;20031;-72
2021/04/14 10:54:15;;;;;;;1.63;0.88;;;17.50;30.00;;;;;;5055740;28;20170;-73
2021/04/14 10:56:41;;;;;;;2.75;0.80;;;17.20;28.40;;;;;;5056804;28;20320;-73
2021/04/14 10:59:11;;;;;;;1.63;0.90;;;17.10;27.60;;;;;;5056040;28;20036;-72
2021/04/14 11:01:40;;;;;;;1.40;0.75;;;17.70;31.60;;;;;;5056775;28;20364;-73
2021/04/14 11:04:39;;;;;;;1.52;0.90;;;18.10;32.20;;;;;;5056694;28;20033;-73
2021/04/14 11:07:12;;;;;;;3.10;1.27;;;18.60;28.40;;;;;;5055970;28;20352;-72
2021/04/14 11:09:40;;;;;;;1.60;1.02;;;17.80;29.80;;;;;;5056735;28;20029;-72
2021/04/14 11:12:10;;;;;;;1.13;0.68;;;17.00;27.70;;;;;;5059052;28;20049;-72
2021/04/14 11:14:42;;;;;;;2.10;0.90;;;15.70;27.40;;;;;;5060276;28;20078;-73
2021/04/14 11:17:14;;;;;;;1.50;0.93;;;15.40;32.30;;;;;;5060450;28;20036;-73
2021/04/14 11:19:50;;;;;;;2.97;1.92;;;15.60;32.50;;;;;;5060653;28;20021;-73
2021/04/14 11:22:16;;;;;;;3.17;1.77;;;16.40;35.00;;;;;;5060572;28;20029;-73
2021/04/14 11:24:51;;;;;;;4.38;1.83;;;16.10;35.70;;;;;;5060340;28;20320;-73
2021/04/14 11:27:24;;;;;;;2.42;1.65;;;15.50;34.80;;;;;;5060124;28;20037;-72
2021/04/14 11:29:52;;;;;;;2.97;1.52;;;14.70;36.10;;;;;;5060521;28;20025;-72
2021/04/14 11:32:22;;;;;;;3.63;1.63;;;13.90;38.30;;;;;;5060391;28;20109;-72
2021/04/14 11:34:59;;;;;;;2.60;2.10;;;13.60;42.70;;;;;;5060298;28;20120;-72
2021/04/14 11:37:29;;;;;;;3.10;2.28;;;14.10;37.40;;;;;;5060027;28;20029;-72
2021/04/14 11:40:01;;;;;;;3.20;2.33;;;14.60;41.10;;;;;;5060271;28;20382;-72
2021/04/14 11:42:39;;;;;;;3.33;2.45;;;14.60;36.30;;;;;;5059896;28;20048;-72
2021/04/14 11:45:06;;;;;;;2.75;2.17;;;14.30;38.00;;;;;;5060121;28;20033;-72
2021/04/14 11:47:37;;;;;;;3.00;2.15;;;14.30;39.80;;;;;;5060003;28;20052;-72
2021/04/14 11:50:16;;;;;;;3.78;2.38;;;14.10;34.50;;;;;;5060076;28;20090;-72
2021/04/14 11:52:54;;;;;;;2.95;2.58;;;13.80;41.10;;;;;;5060094;28;20211;-72
2021/04/14 11:55:20;;;;;;;4.15;2.35;;;13.20;37.60;;;;;;5060124;28;20316;-73
2021/04/14 11:57:49;;;;;;;2.85;2.45;;;12.30;39.50;;;;;;5059934;28;20112;-73
2021/04/14 12:00:18;;;;;;;6.47;3.58;;;11.80;39.80;;;;;;5059893;28;20054;-73
2021/04/14 12:02:46;;;;;;;4.40;2.78;;;11.40;41.30;;;;;;5059511;28;20061;-72
2021/04/14 12:05:13;;;;;;;4.15;2.20;;;11.20;44.00;;;;;;5059315;28;20035;-73
2021/04/14 12:07:38;;;;;;;4.38;2.83;;;11.80;42.60;;;;;;5058823;28;20170;-73
2021/04/14 12:10:06;;;;;;;4.20;2.90;;;11.80;43.80;;;;;;5059594;28;20107;-72
2021/04/14 12:12:32;;;;;;;3.15;2.40;;;11.60;40.40;;;;;;5059336;28;20033;-73
2021/04/14 12:14:57;;;;;;;3.65;2.80;;;11.50;44.50;;;;;;5059561;28;20021;-72
2021/04/14 12:17:24;;;;;;;4.15;2.67;;;11.40;43.90;;;;;;5059573;28;20032;-72
2021/04/14 12:19:51;;;;;;;3.20;2.03;;;11.10;45.40;;;;;;5059233;28;20028;-72
2021/04/14 12:22:17;;;;;;;2.53;1.85;;;11.00;46.00;;;;;;5058254;28;20366;-72
2021/04/14 12:24:44;;;;;;;4.10;2.05;;;11.00;44.90;;;;;;5059245;28;20320;-73
2021/04/14 12:27:10;;;;;;;2.85;1.65;;;11.00;42.50;;;;;;5059085;28;20147;-73
2021/04/14 12:29:36;;;;;;;4.38;2.00;;;11.30;42.30;;;;;;5059047;28;20039;-72
2021/04/14 12:32:03;;;;;;;2.60;1.90;;;11.10;41.70;;;;;;5059292;28;20029;-72
2021/04/14 12:34:29;;;;;;;3.38;2.00;;;11.00;42.80;;;;;;5059177;28;20096;-73
2021/04/14 12:36:54;;;;;;;2.92;2.22;;;11.10;41.10;;;;;;5059248;28;20413;-73
2021/04/14 12:39:20;;;;;;;2.88;1.92;;;11.00;41.20;;;;;;5059151;28;20078;-73
2021/04/14 12:41:46;;;;;;;2.38;1.50;;;11.10;40.90;;;;;;5059093;28;20033;-73
2021/04/14 12:44:11;;;;;;;3.97;1.63;;;11.10;43.40;;;;;;5058701;28;20052;-72
2021/04/14 12:46:44;;;;;;;4.50;2.40;;;11.40;41.50;;;;;;5058606;28;20040;-72
2021/04/14 12:49:12;;;;;;;5.18;2.20;;;11.80;43.80;;;;;;5058676;28;20067;-72
2021/04/14 12:51:44;;;;;;;2.50;2.00;;;12.40;43.30;;;;;;5058936;28;20056;-72
2021/04/14 12:54:32;;;;;;;4.80;2.28;;;13.00;45.60;;;;;;5058908;28;20155;-72
2021/04/14 12:57:14;;;;;;;3.65;2.42;;;13.70;37.20;;;;;;5058574;28;20033;-72
2021/04/14 13:00:08;;;;;;;2.75;2.20;;;14.00;39.30;;;;;;5058847;28;20059;-73
2021/04/14 13:02:41;;;;;;;3.08;2.00;;;14.00;37.70;;;;;;5058188;28;20124;-72
2021/04/14 13:05:31;;;;;;;3.03;2.17;;;14.10;35.10;;;;;;5058269;28;20031;-72
2021/04/14 13:08:17;;;;;;;4.30;2.10;;;14.20;41.50;;;;;;5058205;28;20029;-73
2021/04/14 13:10:58;;;;;;;4.68;2.00;;;14.20;37.20;;;;;;5058254;28;20029;-73
2021/04/14 13:13:25;;;;;;;4.80;1.80;;;14.40;38.90;;;;;;5058138;28;20025;-73
2021/04/14 13:16:14;;;;;;;3.42;2.13;;;14.20;44.50;;;;;;5058107;28;20013;-73